createdAt,value
2018-09-29T00:00:27.997Z,3.45
2018-09-29T00:01:28.701Z,2.87
2018-09-29T00:02:27.587Z,2.05
2018-09-29T00:03:29.007Z,2.54
2018-09-29T00:04:29.392Z,3.31
2018-09-29T00:05:28.775Z,1.73
2018-09-29T00:06:30.123Z,2.37
2018-09-29T00:07:30.317Z,2.17
2018-09-29T00:08:29.761Z,2.46
2018-09-29T00:09:31.176Z,2.51
2018-09-29T00:10:31.462Z,1.95
2018-09-29T00:11:31.004Z,2.70
2018-09-29T00:12:31.763Z,3.05
2018-09-29T00:13:32.175Z,1.90
2018-09-29T00:14:31.724Z,2.40
2018-09-29T00:15:32.421Z,2.22
2018-09-29T00:16:32.802Z,2.11
2018-09-29T00:17:32.352Z,0.97
2018-09-29T00:18:33.189Z,1.38
2018-09-29T00:20:32.820Z,3.12
2018-09-29T00:21:33.623Z,2.71
2018-09-29T00:22:33.805Z,1.30
2018-09-29T00:23:33.345Z,1.71
2018-09-29T00:24:34.229Z,1.48
2018-09-29T00:25:34.613Z,1.37
2018-09-29T00:26:34.343Z,2.71
2018-09-29T00:27:35.136Z,2.42
2018-09-29T00:28:35.626Z,1.80
2018-09-29T00:29:35.371Z,1.19
2018-09-29T00:30:36.381Z,2.45
2018-09-29T00:31:36.348Z,2.19
2018-09-29T00:32:36.077Z,1.96
2018-09-29T00:33:37.046Z,1.41
2018-09-29T00:34:37.237Z,1.74
2018-09-29T00:35:36.929Z,1.85
2018-09-29T00:36:37.971Z,1.84
2018-09-29T00:37:37.973Z,2.06
2018-09-29T00:38:37.161Z,1.51
2018-09-29T00:39:38.156Z,1.65
2018-09-29T00:40:38.408Z,1.40
2018-09-29T00:41:38.069Z,2.08
2018-09-29T00:42:38.981Z,2.05
2018-09-29T00:43:39.568Z,1.29
2018-09-29T00:44:38.701Z,1.13
2018-09-29T00:45:39.752Z,1.45
2018-09-29T00:46:39.700Z,2.04
2018-09-29T00:47:39.216Z,1.64
2018-09-29T00:48:40.241Z,1.45
2018-09-29T00:49:40.067Z,0.90
2018-09-29T00:50:39.638Z,1.21
2018-09-29T00:51:40.635Z,1.35
2018-09-29T00:52:41.192Z,2.63
2018-09-29T00:53:40.084Z,2.63
2018-09-29T00:54:41.474Z,2.39
2018-09-29T00:55:41.814Z,2.08
2018-09-29T00:56:41.318Z,2.31
2018-09-29T00:57:42.191Z,3.53
2018-09-29T00:58:42.441Z,3.52
2018-09-29T00:59:41.892Z,2.42
2018-09-29T01:00:43.328Z,2.48
2018-09-29T01:01:43.693Z,3.68
2018-09-29T01:02:43.102Z,2.85
2018-09-29T01:03:44.325Z,3.27
2018-09-29T01:04:44.561Z,2.73
2018-09-29T01:05:43.986Z,2.47
2018-09-29T01:06:45.171Z,2.68
2018-09-29T01:07:45.497Z,2.87
2018-09-29T01:08:44.929Z,2.92
2018-09-29T01:09:46.221Z,2.16
2018-09-29T01:10:46.489Z,3.93
2018-09-29T01:11:46.081Z,2.32
2018-09-29T01:12:46.817Z,2.03
2018-09-29T01:13:47.112Z,1.32
2018-09-29T01:14:46.515Z,0.80
2018-09-29T01:15:47.556Z,1.84
2018-09-29T01:16:47.900Z,1.38
2018-09-29T01:17:47.286Z,1.95
2018-09-29T01:18:48.646Z,1.11
2018-09-29T01:19:49.081Z,1.64
2018-09-29T01:20:48.629Z,1.60
2018-09-29T01:21:49.617Z,0.90
2018-09-29T01:22:49.942Z,0.81
2018-09-29T01:23:49.697Z,2.05
2018-09-29T01:24:50.308Z,1.18
2018-09-29T01:25:50.887Z,1.59
2018-09-29T01:26:50.159Z,1.28
2018-09-29T01:27:50.801Z,0.93
2018-09-29T01:28:51.248Z,1.27
2018-09-29T01:29:50.976Z,1.37
2018-09-29T01:30:51.834Z,0.98
2018-09-29T01:31:52.199Z,0.24
2018-09-29T01:32:51.854Z,1.10
2018-09-29T01:33:52.694Z,2.03
2018-09-29T01:34:53.028Z,1.85
2018-09-29T01:35:52.645Z,0.95
2018-09-29T01:36:53.322Z,1.56
2018-09-29T01:37:53.498Z,0.85
2018-09-29T01:38:53.110Z,0.75
2018-09-29T01:39:53.730Z,1.17
2018-09-29T01:40:54.049Z,0.85
2018-09-29T01:41:53.667Z,1.00
2018-09-29T01:42:54.536Z,0.80
2018-09-29T01:43:54.709Z,1.08
2018-09-29T01:44:54.532Z,1.34
2018-09-29T01:45:55.088Z,0.73
2018-09-29T01:46:55.228Z,0.37
2018-09-29T01:47:54.743Z,0.58
2018-09-29T01:48:55.281Z,1.13
2018-09-29T01:49:55.530Z,0.93
2018-09-29T01:50:54.951Z,0.38
2018-09-29T01:51:56.156Z,0.52
2018-09-29T01:52:56.337Z,0.03
2018-09-29T01:53:55.870Z,0.62
2018-09-29T01:54:56.579Z,0.06
2018-09-29T01:55:56.696Z,1.01
2018-09-29T01:56:56.256Z,1.23
2018-09-29T01:57:57.199Z,0.80
2018-09-29T01:58:57.295Z,0.64
2018-09-29T01:59:56.823Z,1.41
2018-09-29T02:00:57.925Z,1.15
2018-09-29T02:01:57.971Z,0.65
2018-09-29T02:02:57.531Z,0.79
2018-09-29T02:03:58.360Z,0.86
2018-09-29T02:04:58.487Z,2.13
2018-09-29T02:05:57.753Z,0.73
2018-09-29T02:06:59.110Z,0.86
2018-09-29T02:07:59.430Z,1.17
2018-09-29T02:08:58.641Z,0.93
2018-09-29T02:09:59.846Z,1.10
2018-09-29T02:11:00.050Z,1.97
2018-09-29T02:11:59.341Z,1.73
2018-09-29T02:13:00.760Z,1.22
2018-09-29T02:14:00.417Z,1.31
2018-09-29T02:14:59.787Z,1.51
2018-09-29T02:16:00.716Z,1.21
2018-09-29T02:17:01.390Z,0.77
2018-09-29T02:18:00.802Z,1.41
2018-09-29T02:19:02.389Z,0.93
2018-09-29T02:20:02.186Z,0.49
2018-09-29T02:21:01.921Z,1.45
2018-09-29T02:22:02.864Z,2.37
2018-09-29T02:23:02.910Z,1.28
2018-09-29T02:24:02.590Z,3.23
2018-09-29T02:25:03.472Z,1.81
2018-09-29T02:26:03.845Z,1.05
2018-09-29T02:27:03.932Z,1.09
2018-09-29T02:28:04.483Z,1.86
2018-09-29T02:29:04.624Z,2.03
2018-09-29T02:30:04.451Z,1.82
2018-09-29T02:31:04.966Z,1.81
2018-09-29T02:32:04.721Z,2.67
2018-09-29T02:33:04.937Z,2.05
2018-09-29T02:34:05.543Z,2.19
2018-09-29T02:35:05.535Z,2.06
2018-09-29T02:36:05.822Z,1.41
2018-09-29T02:37:06.399Z,1.71
2018-09-29T02:38:06.201Z,2.12
2018-09-29T02:39:06.581Z,1.76
2018-09-29T02:40:07.094Z,1.88
2018-09-29T02:41:07.595Z,1.57
2018-09-29T02:42:07.219Z,1.96
2018-09-29T02:43:07.501Z,1.18
2018-09-29T02:44:07.972Z,1.35
2018-09-29T02:45:08.014Z,2.63
2018-09-29T02:46:08.420Z,1.96
2018-09-29T02:47:08.483Z,3.01
2018-09-29T02:48:08.147Z,1.96
2018-09-29T02:49:08.499Z,2.88
2018-09-29T02:50:09.103Z,2.30
2018-09-29T02:51:08.921Z,2.44
2018-09-29T02:52:09.364Z,2.05
2018-09-29T02:53:09.786Z,1.63
2018-09-29T02:54:09.964Z,1.56
2018-09-29T02:55:10.488Z,1.36
2018-09-29T02:56:10.368Z,1.96
2018-09-29T02:57:10.503Z,0.83
2018-09-29T02:58:10.923Z,1.27
2018-09-29T02:59:11.386Z,1.47
2018-09-29T03:00:11.585Z,1.54
2018-09-29T03:01:12.112Z,2.46
2018-09-29T03:02:11.792Z,2.27
2018-09-29T03:03:12.106Z,2.12
2018-09-29T03:04:12.564Z,0.51
2018-09-29T03:05:12.243Z,2.61
2018-09-29T03:06:12.795Z,1.78
2018-09-29T03:07:13.227Z,1.25
2018-09-29T03:08:12.805Z,1.77
2018-09-29T03:09:13.454Z,1.73
2018-09-29T03:10:13.784Z,1.59
2018-09-29T03:11:14.150Z,1.63
2018-09-29T03:12:14.680Z,2.51
2018-09-29T03:13:14.909Z,2.68
2018-09-29T03:14:14.606Z,1.94
2018-09-29T03:15:14.921Z,2.25
2018-09-29T03:16:15.349Z,2.77
2018-09-29T03:17:15.970Z,2.78
2018-09-29T03:18:15.536Z,2.73
2018-09-29T03:19:15.805Z,2.44
2018-09-29T03:20:15.686Z,1.35
2018-09-29T03:21:16.144Z,1.14
2018-09-29T03:22:17.047Z,1.53
2018-09-29T03:23:16.555Z,1.42
2018-09-29T03:24:17.674Z,0.79
2018-09-29T03:25:17.947Z,1.22
2018-09-29T03:26:18.185Z,1.87
2018-09-29T03:27:18.523Z,2.04
2018-09-29T03:28:18.880Z,1.05
2018-09-29T03:29:18.609Z,2.26
2018-09-29T03:30:19.754Z,2.68
2018-09-29T03:31:19.736Z,2.13
2018-09-29T03:32:19.406Z,2.13
2018-09-29T03:33:20.403Z,0.96
2018-09-29T03:34:20.438Z,1.43
2018-09-29T03:35:20.189Z,1.26
2018-09-29T03:36:21.199Z,0.94
2018-09-29T03:37:21.123Z,0.72
2018-09-29T03:38:20.877Z,0.84
2018-09-29T03:39:21.823Z,1.56
2018-09-29T03:40:22.285Z,1.84
2018-09-29T03:41:22.020Z,1.39
2018-09-29T03:42:22.997Z,1.18
2018-09-29T03:43:23.438Z,2.48
2018-09-29T03:44:22.900Z,0.84
2018-09-29T03:45:24.324Z,1.09
2018-09-29T03:46:24.662Z,1.36
2018-09-29T03:47:24.306Z,0.90
2018-09-29T03:48:25.379Z,0.89
2018-09-29T03:49:25.396Z,1.21
2018-09-29T03:50:24.319Z,1.43
2018-09-29T03:51:25.831Z,0.72
2018-09-29T03:52:26.192Z,0.85
2018-09-29T03:53:25.892Z,1.25
2018-09-29T03:54:26.676Z,1.91
2018-09-29T03:55:26.999Z,1.39
2018-09-29T03:56:26.675Z,1.50
2018-09-29T03:57:27.563Z,1.11
2018-09-29T03:58:27.992Z,0.81
2018-09-29T03:59:27.462Z,0.67
2018-09-29T04:00:28.764Z,1.89
2018-09-29T04:01:28.990Z,2.29
2018-09-29T04:02:28.415Z,1.97
2018-09-29T04:03:30.381Z,1.86
2018-09-29T04:04:30.420Z,0.81
2018-09-29T04:05:29.348Z,1.51
2018-09-29T04:06:30.599Z,2.06
2018-09-29T04:07:30.971Z,1.35
2018-09-29T04:08:30.559Z,0.81
2018-09-29T04:09:31.380Z,0.59
2018-09-29T04:10:31.659Z,0.29
2018-09-29T04:11:31.250Z,0.21
2018-09-29T04:12:31.974Z,1.18
2018-09-29T04:13:32.211Z,0.66
2018-09-29T04:14:31.725Z,1.36
2018-09-29T04:15:33.304Z,0.88
2018-09-29T04:16:33.090Z,0.73
2018-09-29T04:18:33.457Z,0.90
2018-09-29T04:19:33.812Z,1.36
2018-09-29T04:20:33.354Z,1.47
2018-09-29T04:21:34.367Z,1.10
2018-09-29T04:22:34.678Z,1.22
2018-09-29T04:23:34.407Z,1.18
2018-09-29T04:24:35.363Z,1.46
2018-09-29T04:25:36.098Z,1.37
2018-09-29T04:26:35.368Z,1.94
2018-09-29T04:27:36.334Z,1.52
2018-09-29T04:28:37.005Z,0.74
2018-09-29T04:29:36.154Z,1.35
2018-09-29T04:30:37.105Z,2.14
2018-09-29T04:31:37.587Z,1.26
2018-09-29T04:32:37.247Z,1.92
2018-09-29T04:33:38.216Z,1.63
2018-09-29T04:34:38.689Z,1.60
2018-09-29T04:35:38.325Z,1.26
2018-09-29T04:36:39.403Z,0.87
2018-09-29T04:37:39.552Z,1.56
2018-09-29T04:38:39.099Z,1.22
2018-09-29T04:39:39.970Z,2.58
2018-09-29T04:40:40.452Z,1.83
2018-09-29T04:41:39.899Z,1.37
2018-09-29T04:42:41.230Z,2.63
2018-09-29T04:43:41.646Z,1.36
2018-09-29T04:44:41.164Z,1.42
2018-09-29T04:45:41.945Z,1.86
2018-09-29T04:46:42.234Z,2.51
2018-09-29T04:47:41.604Z,2.08
2018-09-29T04:48:42.833Z,1.32
2018-09-29T04:49:43.113Z,0.97
2018-09-29T04:50:42.484Z,1.24
2018-09-29T04:51:44.102Z,2.44
2018-09-29T04:52:43.831Z,1.92
2018-09-29T04:53:43.282Z,1.07
2018-09-29T04:54:44.342Z,2.30
2018-09-29T04:55:44.669Z,1.58
2018-09-29T04:56:44.081Z,1.62
2018-09-29T04:57:45.182Z,2.13
2018-09-29T04:58:45.408Z,2.71
2018-09-29T04:59:44.851Z,1.63
2018-09-29T05:00:45.827Z,2.55
2018-09-29T05:01:47.007Z,0.88
2018-09-29T05:02:45.893Z,0.89
2018-09-29T05:03:46.973Z,1.81
2018-09-29T05:04:47.012Z,2.05
2018-09-29T05:05:46.559Z,1.28
2018-09-29T05:06:47.164Z,2.55
2018-09-29T05:07:47.483Z,1.82
2018-09-29T05:08:46.821Z,1.32
2018-09-29T05:09:47.993Z,1.75
2018-09-29T05:10:48.621Z,0.94
2018-09-29T05:11:47.698Z,2.31
2018-09-29T05:12:48.284Z,2.06
2018-09-29T05:13:48.719Z,3.59
2018-09-29T05:14:47.926Z,2.84
2018-09-29T05:15:48.610Z,3.18
2018-09-29T05:16:49.103Z,2.71
2018-09-29T05:17:48.073Z,1.79
2018-09-29T05:18:49.354Z,1.88
2018-09-29T05:19:49.800Z,2.11
2018-09-29T05:20:49.460Z,3.77
2018-09-29T05:21:50.168Z,2.01
2018-09-29T05:22:50.543Z,2.08
2018-09-29T05:23:50.299Z,2.24
2018-09-29T05:24:51.133Z,2.21
2018-09-29T05:25:51.452Z,1.88
2018-09-29T05:26:51.183Z,2.09
2018-09-29T05:27:52.036Z,1.58
2018-09-29T05:28:52.413Z,2.04
2018-09-29T05:29:52.066Z,2.57
2018-09-29T05:30:52.983Z,2.22
2018-09-29T05:31:53.261Z,1.98
2018-09-29T05:32:52.860Z,1.83
2018-09-29T05:33:53.600Z,2.84
2018-09-29T05:34:53.886Z,2.88
2018-09-29T05:35:53.528Z,3.30
2018-09-29T05:36:54.310Z,3.75
2018-09-29T05:37:54.487Z,2.29
2018-09-29T05:38:54.041Z,1.80
2018-09-29T05:39:54.820Z,2.22
2018-09-29T05:40:55.052Z,3.10
2018-09-29T05:41:54.604Z,2.15
2018-09-29T05:42:55.328Z,3.45
2018-09-29T05:43:55.612Z,2.11
2018-09-29T05:44:55.059Z,3.37
2018-09-29T05:45:56.178Z,3.83
2018-09-29T05:46:56.385Z,2.30
2018-09-29T05:47:55.808Z,0.97
2018-09-29T05:48:57.056Z,2.09
2018-09-29T05:49:57.227Z,0.39
2018-09-29T05:50:56.686Z,0.49
2018-09-29T05:51:57.441Z,1.27
2018-09-29T05:52:57.647Z,1.32
2018-09-29T05:53:57.244Z,1.03
2018-09-29T05:54:57.848Z,1.26
2018-09-29T05:55:58.039Z,2.08
2018-09-29T05:56:57.512Z,2.83
2018-09-29T05:57:58.781Z,2.37
2018-09-29T05:59:58.373Z,2.20
2018-09-29T06:00:59.297Z,1.58
2018-09-29T06:01:59.310Z,2.32
2018-09-29T06:02:58.854Z,1.78
2018-09-29T06:03:59.772Z,2.87
2018-09-29T06:05:00.031Z,2.00
2018-09-29T06:05:59.568Z,2.34
2018-09-29T06:07:00.512Z,3.11
2018-09-29T06:08:00.567Z,3.59
2018-09-29T06:09:00.119Z,3.76
2018-09-29T06:10:01.231Z,3.18
2018-09-29T06:11:01.062Z,2.80
2018-09-29T06:12:00.486Z,4.07
2018-09-29T06:13:01.927Z,3.67
2018-09-29T06:14:01.635Z,4.14
2018-09-29T06:15:01.160Z,4.00
2018-09-29T06:16:01.941Z,1.89
2018-09-29T06:17:02.264Z,2.10
2018-09-29T06:18:01.895Z,3.19
2018-09-29T06:19:03.161Z,2.26
2018-09-29T06:20:02.747Z,2.34
2018-09-29T06:21:02.494Z,2.92
2018-09-29T06:22:03.163Z,3.14
2018-09-29T06:23:03.682Z,2.72
2018-09-29T06:24:03.955Z,4.79
2018-09-29T06:25:04.437Z,2.39
2018-09-29T06:26:04.880Z,3.77
2018-09-29T06:27:05.155Z,4.32
2018-09-29T06:28:05.592Z,2.89
2018-09-29T06:29:06.046Z,2.99
2018-09-29T06:30:06.229Z,3.60
2018-09-29T06:31:06.711Z,3.04
2018-09-29T06:32:07.219Z,3.34
2018-09-29T06:33:07.004Z,1.23
2018-09-29T06:34:07.210Z,2.06
2018-09-29T06:35:07.620Z,2.80
2018-09-29T06:36:07.797Z,2.00
2018-09-29T06:37:08.130Z,1.62
2018-09-29T06:38:08.556Z,2.96
2018-09-29T06:39:08.781Z,2.93
2018-09-29T06:40:09.346Z,1.88
2018-09-29T06:41:09.780Z,2.51
2018-09-29T06:42:09.922Z,3.07
2018-09-29T06:43:10.353Z,1.76
2018-09-29T06:44:10.770Z,1.67
2018-09-29T06:45:10.782Z,1.73
2018-09-29T06:46:10.921Z,2.18
2018-09-29T06:47:11.200Z,3.03
2018-09-29T06:48:11.533Z,3.06
2018-09-29T06:49:11.805Z,1.86
2018-09-29T06:50:11.824Z,1.33
2018-09-29T06:51:11.955Z,1.07
2018-09-29T06:52:13.020Z,2.35
2018-09-29T06:53:12.293Z,2.04
2018-09-29T06:54:12.779Z,1.53
2018-09-29T06:55:13.077Z,2.54
2018-09-29T06:56:13.288Z,3.64
2018-09-29T06:57:13.266Z,1.65
2018-09-29T06:58:13.893Z,1.67
2018-09-29T06:59:14.116Z,2.35
2018-09-29T07:00:14.550Z,1.90
2018-09-29T07:01:14.914Z,2.72
2018-09-29T07:02:14.788Z,2.22
2018-09-29T07:03:15.409Z,1.70
2018-09-29T07:04:15.662Z,0.86
2018-09-29T07:05:15.163Z,1.95
2018-09-29T07:06:15.702Z,3.18
2018-09-29T07:07:15.830Z,4.64
2018-09-29T07:08:15.354Z,2.09
2018-09-29T07:09:15.900Z,2.75
2018-09-29T07:10:16.233Z,1.97
2018-09-29T07:11:15.950Z,4.35
2018-09-29T07:12:16.612Z,2.95
2018-09-29T07:13:16.944Z,2.48
2018-09-29T07:14:16.469Z,1.72
2018-09-29T07:15:17.340Z,3.23
2018-09-29T07:16:17.579Z,1.91
2018-09-29T07:17:17.765Z,2.43
2018-09-29T07:18:17.722Z,1.31
2018-09-29T07:19:17.967Z,1.69
2018-09-29T07:20:17.638Z,1.87
2018-09-29T07:21:18.371Z,1.27
2018-09-29T07:22:18.783Z,1.79
2018-09-29T07:23:18.393Z,2.26
2018-09-29T07:24:19.043Z,2.44
2018-09-29T07:25:19.544Z,3.54
2018-09-29T07:26:19.212Z,2.66
2018-09-29T07:27:20.154Z,3.80
2018-09-29T07:28:20.921Z,3.70
2018-09-29T07:29:20.895Z,3.78
2018-09-29T07:30:21.339Z,2.70
2018-09-29T07:31:21.858Z,1.23
2018-09-29T07:32:21.613Z,1.40
2018-09-29T07:33:22.719Z,2.94
2018-09-29T07:34:22.711Z,1.35
2018-09-29T07:35:22.428Z,2.33
2018-09-29T07:36:26.048Z,2.60
2018-09-29T07:37:23.692Z,2.44
2018-09-29T07:38:23.364Z,1.91
2018-09-29T07:39:24.469Z,1.77
2018-09-29T07:40:24.413Z,2.41
2018-09-29T07:41:24.298Z,2.87
2018-09-29T07:42:25.294Z,1.70
2018-09-29T07:43:25.655Z,3.22
2018-09-29T07:44:25.815Z,1.78
2018-09-29T07:45:26.310Z,2.32
2018-09-29T07:46:26.557Z,3.09
2018-09-29T07:47:25.635Z,1.51
2018-09-29T07:48:26.463Z,1.58
2018-09-29T07:49:26.799Z,2.05
2018-09-29T07:50:26.597Z,0.94
2018-09-29T07:51:27.469Z,1.00
2018-09-29T07:52:27.857Z,0.84
2018-09-29T07:53:27.434Z,1.01
2018-09-29T07:54:29.264Z,2.92
2018-09-29T07:55:29.250Z,4.63
2018-09-29T07:56:27.703Z,2.99
2018-09-29T07:57:29.795Z,1.36
2018-09-29T07:58:29.591Z,2.61
2018-09-29T07:59:28.412Z,2.35
2018-09-29T08:00:29.717Z,1.74
2018-09-29T08:01:29.987Z,2.21
2018-09-29T08:02:29.413Z,3.83
2018-09-29T08:03:30.884Z,4.19
2018-09-29T08:04:31.221Z,3.35
2018-09-29T08:05:30.739Z,2.52
2018-09-29T08:06:32.116Z,2.65
2018-09-29T08:07:32.466Z,4.11
2018-09-29T08:08:31.771Z,4.96
2018-09-29T08:09:32.985Z,4.06
2018-09-29T08:10:33.385Z,2.62
2018-09-29T08:11:32.912Z,1.69
2018-09-29T08:12:33.887Z,1.58
2018-09-29T08:13:34.224Z,2.33
2018-09-29T08:14:33.888Z,5.36
2018-09-29T08:15:34.806Z,4.01
2018-09-29T08:16:35.208Z,1.64
2018-09-29T08:17:34.953Z,2.17
2018-09-29T08:18:36.052Z,2.70
2018-09-29T08:19:36.030Z,3.04
2018-09-29T08:20:35.753Z,2.25
2018-09-29T08:21:36.727Z,2.28
2018-09-29T08:22:37.147Z,2.48
2018-09-29T08:23:36.794Z,3.28
2018-09-29T08:24:37.741Z,2.52
2018-09-29T08:25:38.400Z,2.09
2018-09-29T08:26:37.620Z,2.97
2018-09-29T08:27:38.557Z,2.32
2018-09-29T08:28:39.340Z,2.67
2018-09-29T08:29:38.170Z,3.20
2018-09-29T08:30:38.981Z,1.90
2018-09-29T08:31:39.572Z,1.58
2018-09-29T08:32:38.651Z,3.46
2018-09-29T08:33:39.799Z,3.29
2018-09-29T08:34:39.895Z,3.18
2018-09-29T08:35:39.108Z,4.28
2018-09-29T08:36:39.985Z,4.71
2018-09-29T08:37:40.547Z,4.67
2018-09-29T08:38:39.729Z,2.84
2018-09-29T08:39:41.098Z,2.42
2018-09-29T08:40:41.481Z,1.73
2018-09-29T08:41:40.969Z,1.29
2018-09-29T08:42:41.920Z,3.02
2018-09-29T08:43:42.246Z,3.27
2018-09-29T08:44:44.729Z,3.56
2018-09-29T08:45:46.827Z,3.79
2018-09-29T08:46:43.510Z,2.85
2018-09-29T08:47:43.039Z,2.76
2018-09-29T08:48:46.673Z,3.19
2018-09-29T08:49:44.400Z,3.41
2018-09-29T08:50:43.378Z,4.34
2018-09-29T08:51:44.506Z,2.23
2018-09-29T08:52:44.756Z,2.59
2018-09-29T08:53:44.156Z,3.71
2018-09-29T08:54:45.485Z,3.24
2018-09-29T08:55:45.774Z,3.73
2018-09-29T08:56:45.264Z,2.84
2018-09-29T08:57:45.980Z,3.12
2018-09-29T08:58:46.356Z,2.42
2018-09-29T08:59:45.641Z,2.08
2018-09-29T09:00:47.027Z,2.42
2018-09-29T09:01:47.278Z,2.25
2018-09-29T09:02:46.840Z,3.41
2018-09-29T09:03:47.678Z,4.18
2018-09-29T09:04:47.780Z,5.49
2018-09-29T09:05:47.199Z,3.25
2018-09-29T09:06:48.471Z,1.54
2018-09-29T09:07:48.788Z,3.96
2018-09-29T09:08:48.227Z,4.61
2018-09-29T09:09:49.498Z,6.77
2018-09-29T09:10:49.979Z,3.74
2018-09-29T09:11:49.516Z,1.31
2018-09-29T09:12:50.546Z,1.81
2018-09-29T09:13:50.425Z,0.80
2018-09-29T09:14:56.070Z,1.47
2018-09-29T09:15:51.117Z,4.04
2018-09-29T09:16:51.547Z,2.09
2018-09-29T09:17:51.144Z,4.02
2018-09-29T09:18:52.065Z,2.73
2018-09-29T09:19:52.424Z,1.92
2018-09-29T09:20:52.074Z,2.28
2018-09-29T09:21:52.885Z,2.91
2018-09-29T09:22:53.291Z,2.75
2018-09-29T09:23:52.860Z,5.56
2018-09-29T09:24:53.842Z,2.96
2018-09-29T09:25:53.588Z,2.57
2018-09-29T09:26:53.197Z,4.54
2018-09-29T09:27:54.066Z,4.24
2018-09-29T09:28:54.410Z,2.62
2018-09-29T09:29:54.080Z,2.92
2018-09-29T09:30:54.724Z,3.04
2018-09-29T09:32:54.261Z,5.31
2018-09-29T09:33:55.018Z,4.19
2018-09-29T09:34:55.515Z,3.95
2018-09-29T09:35:55.042Z,3.19
2018-09-29T09:36:55.644Z,1.00
2018-09-29T09:37:55.928Z,2.09
2018-09-29T09:38:55.296Z,2.58
2018-09-29T09:39:56.786Z,2.30
2018-09-29T09:40:56.918Z,3.33
2018-09-29T09:41:56.506Z,2.94
2018-09-29T09:42:57.414Z,5.13
2018-09-29T09:43:57.522Z,2.83
2018-09-29T09:44:56.862Z,1.67
2018-09-29T09:45:57.953Z,0.94
2018-09-29T09:46:57.980Z,1.75
2018-09-29T09:47:57.602Z,2.95
2018-09-29T09:48:58.210Z,2.61
2018-09-29T09:49:58.274Z,2.56
2018-09-29T09:50:57.600Z,4.86
2018-09-29T09:51:59.138Z,4.07
2018-09-29T09:52:58.713Z,4.83
2018-09-29T09:53:58.260Z,5.45
2018-09-29T09:54:59.074Z,4.78
2018-09-29T09:55:59.306Z,4.31
2018-09-29T09:56:58.640Z,3.36
2018-09-29T09:58:00.041Z,3.44
2018-09-29T09:59:00.087Z,2.12
2018-09-29T09:59:59.361Z,3.11
2018-09-29T10:01:00.636Z,1.88
2018-09-29T10:02:00.903Z,2.10
2018-09-29T10:03:00.316Z,4.31
2018-09-29T10:04:01.724Z,3.46
2018-09-29T10:05:01.989Z,1.25
2018-09-29T10:06:01.079Z,0.80
2018-09-29T10:07:02.380Z,0.72
2018-09-29T10:08:02.551Z,3.55
2018-09-29T10:09:02.209Z,4.37
2018-09-29T10:10:03.211Z,4.27
2018-09-29T10:11:03.560Z,3.83
2018-09-29T10:12:03.808Z,2.92
2018-09-29T10:13:04.129Z,4.59
2018-09-29T10:14:03.976Z,2.17
2018-09-29T10:15:04.249Z,3.12
2018-09-29T10:16:06.249Z,4.74
2018-09-29T10:17:05.028Z,2.91
2018-09-29T10:18:05.146Z,2.98
2018-09-29T10:19:05.581Z,2.87
2018-09-29T10:20:05.730Z,2.57
2018-09-29T10:21:05.281Z,1.38
2018-09-29T10:22:05.567Z,1.45
2018-09-29T10:23:05.816Z,1.43
2018-09-29T10:24:06.271Z,3.92
2018-09-29T10:25:06.866Z,2.59
2018-09-29T10:26:06.694Z,2.38
2018-09-29T10:27:06.972Z,2.70
2018-09-29T10:28:07.501Z,3.63
2018-09-29T10:29:07.394Z,2.66
2018-09-29T10:30:07.676Z,4.16
2018-09-29T10:31:08.236Z,1.97
2018-09-29T10:32:08.173Z,4.41
2018-09-29T10:33:08.458Z,2.47
2018-09-29T10:34:08.737Z,6.26
2018-09-29T10:35:09.115Z,2.29
2018-09-29T10:36:09.355Z,4.53
2018-09-29T10:37:09.733Z,3.90
2018-09-29T10:38:10.203Z,1.16
2018-09-29T10:39:10.436Z,3.30
2018-09-29T10:40:10.640Z,3.99
2018-09-29T10:41:11.088Z,3.43
2018-09-29T10:42:11.117Z,2.86
2018-09-29T10:43:11.514Z,2.24
2018-09-29T10:44:11.928Z,2.50
2018-09-29T10:45:12.024Z,1.71
2018-09-29T10:46:12.516Z,2.83
2018-09-29T10:47:12.879Z,3.46
2018-09-29T10:48:13.626Z,2.82
2018-09-29T10:49:12.872Z,1.82
2018-09-29T10:50:12.938Z,4.71
2018-09-29T10:51:13.376Z,3.24
2018-09-29T10:52:13.689Z,2.54
2018-09-29T10:53:13.500Z,2.35
2018-09-29T10:54:14.050Z,4.26
2018-09-29T10:55:14.530Z,4.00
2018-09-29T10:56:14.226Z,6.32
2018-09-29T10:57:14.844Z,5.76
2018-09-29T10:58:14.979Z,5.21
2018-09-29T10:59:15.480Z,4.41
2018-09-29T11:00:15.517Z,6.39
2018-09-29T11:01:15.879Z,5.50
2018-09-29T11:02:16.352Z,4.82
2018-09-29T11:03:16.705Z,6.27
2018-09-29T11:04:17.110Z,4.51
2018-09-29T11:05:17.423Z,2.65
2018-09-29T11:06:17.549Z,4.72
2018-09-29T11:07:18.044Z,4.05
2018-09-29T11:08:17.752Z,4.88
2018-09-29T11:09:18.445Z,2.86
2018-09-29T11:10:18.689Z,4.32
2018-09-29T11:11:18.395Z,2.08
2018-09-29T11:12:19.336Z,5.30
2018-09-29T11:13:19.220Z,7.15
2018-09-29T11:14:18.955Z,6.00
2018-09-29T11:15:19.962Z,3.84
2018-09-29T11:16:19.801Z,3.25
2018-09-29T11:17:19.509Z,2.88
2018-09-29T11:18:20.302Z,7.06
2018-09-29T11:19:20.863Z,3.51
2018-09-29T11:20:20.421Z,2.45
2018-09-29T11:21:20.825Z,3.85
2018-09-29T11:22:21.290Z,3.85
2018-09-29T11:23:20.567Z,3.06
2018-09-29T11:24:21.485Z,3.31
2018-09-29T11:25:21.886Z,5.08
2018-09-29T11:26:21.633Z,3.34
2018-09-29T11:27:22.530Z,1.76
2018-09-29T11:28:23.047Z,1.01
2018-09-29T11:29:22.622Z,2.98
2018-09-29T11:30:23.714Z,2.79
2018-09-29T11:31:24.085Z,2.51
2018-09-29T11:32:23.754Z,5.60
2018-09-29T11:33:24.729Z,4.01
2018-09-29T11:34:25.382Z,2.03
2018-09-29T11:35:24.403Z,2.58
2018-09-29T11:36:25.319Z,3.27
2018-09-29T11:37:25.738Z,2.44
2018-09-29T11:38:25.348Z,1.72
2018-09-29T11:39:26.307Z,1.11
2018-09-29T11:40:26.520Z,1.34
2018-09-29T11:41:26.238Z,1.29
2018-09-29T11:42:27.006Z,2.83
2018-09-29T11:43:27.258Z,3.47
2018-09-29T11:44:26.685Z,2.52
2018-09-29T11:45:28.060Z,1.49
2018-09-29T11:46:28.649Z,2.26
2018-09-29T11:47:27.776Z,3.19
2018-09-29T11:48:28.650Z,0.80
2018-09-29T11:49:29.447Z,0.31
2018-09-29T11:50:28.554Z,0.24
2018-09-29T11:51:29.616Z,1.94
2018-09-29T11:52:29.351Z,6.24
2018-09-29T11:53:28.677Z,1.70
2018-09-29T11:54:30.052Z,1.50
2018-09-29T11:55:30.404Z,1.61
2018-09-29T11:56:29.955Z,1.60
2018-09-29T11:57:31.079Z,2.42
2018-09-29T11:58:30.893Z,2.35
2018-09-29T11:59:30.399Z,0.83
2018-09-29T12:00:31.180Z,0.72
2018-09-29T12:01:31.446Z,1.49
2018-09-29T12:02:30.926Z,2.43
2018-09-29T12:03:32.312Z,1.98
2018-09-29T12:04:32.652Z,1.74
2018-09-29T12:05:31.662Z,4.01
2018-09-29T12:06:32.918Z,3.89
2018-09-29T12:07:33.357Z,3.41
2018-09-29T12:08:33.041Z,4.14
2018-09-29T12:09:33.929Z,2.05
2018-09-29T12:10:34.368Z,1.88
2018-09-29T12:11:34.114Z,2.38
2018-09-29T12:12:35.168Z,2.94
2018-09-29T12:13:34.974Z,3.38
2018-09-29T12:14:34.683Z,2.22
2018-09-29T12:15:35.585Z,2.26
2018-09-29T12:16:35.987Z,4.40
2018-09-29T12:17:35.746Z,5.26
2018-09-29T12:18:36.723Z,2.92
2018-09-29T12:19:37.169Z,2.62
2018-09-29T12:20:36.950Z,4.39
2018-09-29T12:21:37.911Z,4.11
2018-09-29T12:22:38.439Z,2.24
2018-09-29T12:23:37.675Z,0.80
2018-09-29T12:24:38.538Z,1.70
2018-09-29T12:25:39.031Z,1.43
2018-09-29T12:26:38.642Z,1.36
2018-09-29T12:27:39.592Z,1.68
2018-09-29T12:28:40.051Z,1.58
2018-09-29T12:29:39.927Z,4.09
2018-09-29T12:30:40.724Z,3.99
2018-09-29T12:31:41.029Z,1.33
2018-09-29T12:32:40.680Z,1.60
2018-09-29T12:33:41.394Z,3.24
2018-09-29T12:34:41.717Z,4.09
2018-09-29T12:35:41.183Z,3.24
2018-09-29T12:36:42.425Z,4.22
2018-09-29T12:37:42.736Z,4.84
2018-09-29T12:38:42.290Z,5.95
2018-09-29T12:39:43.407Z,2.99
2018-09-29T12:40:43.209Z,3.99
2018-09-29T12:45:44.381Z,2.67
2018-09-29T12:51:52.025Z,3.50
2018-09-29T12:52:46.639Z,3.48
2018-09-29T12:53:46.225Z,1.07
2018-09-29T12:54:46.848Z,1.17
2018-09-29T12:55:47.013Z,1.45
2018-09-29T12:56:46.591Z,1.21
2018-09-29T12:57:47.319Z,1.16
2018-09-29T12:58:47.723Z,0.34
2018-09-29T12:59:46.957Z,0.35
2018-09-29T13:00:48.106Z,0.69
2018-09-29T13:01:48.704Z,2.27
2018-09-29T13:02:47.751Z,2.32
2018-09-29T13:03:48.460Z,3.38
2018-09-29T13:04:48.934Z,3.34
2018-09-29T13:05:48.607Z,1.99
2018-09-29T13:06:49.479Z,1.98
2018-09-29T13:07:49.773Z,3.61
2018-09-29T13:08:49.445Z,3.62
2018-09-29T13:09:50.262Z,2.80
2018-09-29T13:10:50.697Z,3.52
2018-09-29T13:11:50.354Z,3.76
2018-09-29T13:12:51.232Z,2.50
2018-09-29T13:13:51.568Z,3.53
2018-09-29T13:14:51.262Z,4.27
2018-09-29T13:15:51.950Z,2.68
2018-09-29T13:16:52.337Z,1.70
2018-09-29T13:17:51.975Z,3.65
2018-09-29T13:18:52.888Z,3.99
2018-09-29T13:19:53.043Z,2.90
2018-09-29T13:20:52.673Z,2.72
2018-09-29T13:21:53.557Z,4.17
2018-09-29T13:22:53.788Z,4.51
2018-09-29T13:23:53.407Z,4.74
2018-09-29T13:24:54.202Z,2.85
2018-09-29T13:25:54.442Z,3.86
2018-09-29T13:26:54.004Z,2.81
2018-09-29T13:27:54.709Z,2.58
2018-09-29T13:28:54.898Z,2.41
2018-09-29T13:29:54.300Z,2.55
2018-09-29T13:30:55.090Z,2.01
2018-09-29T13:31:55.335Z,1.94
2018-09-29T13:32:54.788Z,1.76
2018-09-29T13:33:55.423Z,2.60
2018-09-29T13:34:55.769Z,5.00